Low Mountain, Arizona
Current Conditions -  °F | °C
As of 3:53 PM on Wednesday 17 Dec 2014 (Local Time) from KGUP Reporting Station
Overcast Overcast  
Wind Chill: 28°   Ceiling: 2100
Heat Index: 35°   Visibility: 10mi
Dew Point: 30°   Wind: 9mph
Humidity: 82%   Direction: 240°WSW
Pressure: 30.01"   Gusts: NA
Location:  36.1012°N, 109.584°W
Report Text: KGUP 172253Z AUTO 24008KT 10SM BKN021 OVC050 02/M01 A3001 RMK AO2 SLP169 T00171011
Loading
Personal Weather Stations






























Interactive Weather Map New forecast layout! Learn more

10-Day Weather Forecast

Advertisements
Track Severe Weather on mobile